createdAt,value
2022-12-28T00:00:15.420Z,8.80
2022-12-28T00:01:15.522Z,8.90
2022-12-28T00:02:15.410Z,9.10
2022-12-28T00:03:15.363Z,8.80
2022-12-28T00:04:15.429Z,9.20
2022-12-28T00:05:15.343Z,9.20
2022-12-28T00:06:15.349Z,9.30
2022-12-28T00:07:15.329Z,9.30
2022-12-28T00:08:15.309Z,8.60
2022-12-28T00:09:15.318Z,9.70
2022-12-28T00:10:15.304Z,9.20
2022-12-28T00:11:28.326Z,9.60
2022-12-28T00:12:17.310Z,9.20
2022-12-28T00:13:15.254Z,9.00
2022-12-28T00:14:15.254Z,8.00
2022-12-28T00:15:15.288Z,8.90
2022-12-28T00:16:15.246Z,8.90
2022-12-28T00:17:15.197Z,9.00
2022-12-28T00:18:15.196Z,8.40
2022-12-28T00:19:15.220Z,9.00
2022-12-28T00:20:15.194Z,8.30
2022-12-28T00:21:15.241Z,8.70
2022-12-28T00:22:15.159Z,8.20
2022-12-28T00:23:15.196Z,8.00
2022-12-28T00:24:15.181Z,8.20
2022-12-28T00:25:16.138Z,8.10
2022-12-28T00:26:15.139Z,7.80
2022-12-28T00:27:16.109Z,7.90
2022-12-28T00:28:15.091Z,7.80
2022-12-28T00:29:15.102Z,8.30
2022-12-28T00:30:15.080Z,7.20
2022-12-28T00:31:15.093Z,7.20
2022-12-28T00:32:15.034Z,7.40
2022-12-28T00:33:15.054Z,7.30
2022-12-28T00:34:15.026Z,7.00
2022-12-28T00:35:15.027Z,6.60
2022-12-28T00:36:15.000Z,7.10
2022-12-28T00:37:15.014Z,6.50
2022-12-28T00:38:14.992Z,6.30
2022-12-28T00:39:15.004Z,6.30
2022-12-28T00:40:18.969Z,6.40
2022-12-28T00:41:16.958Z,6.20
2022-12-28T00:42:14.943Z,5.90
2022-12-28T00:43:14.935Z,6.30
2022-12-28T00:44:15.084Z,6.40
2022-12-28T00:45:14.934Z,5.70
2022-12-28T00:46:14.907Z,6.20
2022-12-28T00:47:14.945Z,6.00
2022-12-28T00:48:14.864Z,6.00
2022-12-28T00:49:14.867Z,6.10
2022-12-28T00:50:14.889Z,6.10
2022-12-28T00:51:14.850Z,5.90
2022-12-28T00:52:14.827Z,5.80
2022-12-28T00:53:14.853Z,5.30
2022-12-28T00:54:14.827Z,6.00
2022-12-28T00:55:14.814Z,5.40
2022-12-28T00:56:14.822Z,5.70
2022-12-28T00:57:14.775Z,6.00
2022-12-28T00:58:14.784Z,5.60
2022-12-28T00:59:14.783Z,5.10
2022-12-28T01:00:14.745Z,5.30
2022-12-28T01:01:14.864Z,5.30
2022-12-28T01:02:14.895Z,5.80
2022-12-28T01:03:14.782Z,5.50
2022-12-28T01:04:14.733Z,5.20
2022-12-28T01:05:14.720Z,5.00
2022-12-28T01:06:14.680Z,5.10
2022-12-28T01:07:14.660Z,4.80
2022-12-28T01:08:14.660Z,5.40
2022-12-28T01:09:14.651Z,5.30
2022-12-28T01:10:14.643Z,5.40
2022-12-28T01:11:14.623Z,5.20
2022-12-28T01:12:14.616Z,5.40
2022-12-28T01:13:14.650Z,5.50
2022-12-28T01:14:14.593Z,5.20
2022-12-28T01:15:14.599Z,5.20
2022-12-28T01:16:14.651Z,4.80
2022-12-28T01:17:14.567Z,4.90
2022-12-28T01:18:14.543Z,5.20
2022-12-28T01:19:14.564Z,4.60
2022-12-28T01:20:15.538Z,5.20
2022-12-28T01:21:14.532Z,4.90
2022-12-28T01:22:14.501Z,4.50
2022-12-28T01:23:14.505Z,4.90
2022-12-28T01:24:14.474Z,5.30
2022-12-28T01:25:14.497Z,4.90
2022-12-28T01:26:14.473Z,5.10
2022-12-28T01:27:14.477Z,4.90
2022-12-28T01:28:14.434Z,5.30
2022-12-28T01:29:14.424Z,5.00
2022-12-28T01:30:14.423Z,5.10
2022-12-28T01:31:14.455Z,4.80
2022-12-28T01:32:14.401Z,5.20
2022-12-28T01:33:14.393Z,4.70
2022-12-28T01:34:14.371Z,4.80
2022-12-28T01:35:14.365Z,4.90
2022-12-28T01:36:14.382Z,5.10
2022-12-28T01:37:14.361Z,5.10
2022-12-28T01:38:14.321Z,5.50
2022-12-28T01:39:14.350Z,5.00
2022-12-28T01:40:14.312Z,5.10
2022-12-28T01:41:14.300Z,4.80
2022-12-28T01:42:14.290Z,5.40
2022-12-28T01:43:14.290Z,5.20
2022-12-28T01:44:15.259Z,5.30
2022-12-28T01:45:14.295Z,4.90
2022-12-28T01:46:14.283Z,5.00
2022-12-28T01:47:14.230Z,4.50
2022-12-28T01:48:14.201Z,4.50
2022-12-28T01:49:14.215Z,4.60
2022-12-28T01:50:14.191Z,4.50
2022-12-28T01:51:14.207Z,5.00
2022-12-28T01:52:14.184Z,5.10
2022-12-28T01:53:14.159Z,5.30
2022-12-28T01:54:14.147Z,4.50
2022-12-28T01:55:14.142Z,4.80
2022-12-28T01:56:14.145Z,4.90
2022-12-28T01:57:14.158Z,4.70
2022-12-28T01:58:14.113Z,5.00
2022-12-28T01:59:14.091Z,4.80
2022-12-28T02:00:14.086Z,4.70
2022-12-28T02:01:14.218Z,4.90
2022-12-28T02:02:14.253Z,4.90
2022-12-28T02:03:14.236Z,5.00
2022-12-28T02:04:14.046Z,5.30
2022-12-28T02:05:14.017Z,5.30
2022-12-28T02:06:14.041Z,5.30
2022-12-28T02:07:14.015Z,4.90
2022-12-28T02:08:13.994Z,5.20
2022-12-28T02:09:13.987Z,5.00
2022-12-28T02:10:41.088Z,5.30
2022-12-28T02:11:14.980Z,5.20
2022-12-28T02:12:13.965Z,4.80
2022-12-28T02:13:14.005Z,4.90
2022-12-28T02:14:13.974Z,5.10
2022-12-28T02:15:17.085Z,5.00
2022-12-28T02:16:14.979Z,5.30
2022-12-28T02:17:13.914Z,4.90
2022-12-28T02:18:13.893Z,5.30
2022-12-28T02:19:13.893Z,4.90
2022-12-28T02:20:13.866Z,4.80
2022-12-28T02:21:13.858Z,5.10
2022-12-28T02:22:13.929Z,5.00
2022-12-28T02:23:13.825Z,5.00
2022-12-28T02:24:13.851Z,5.00
2022-12-28T02:25:14.295Z,5.20
2022-12-28T02:26:13.799Z,5.20
2022-12-28T02:27:13.799Z,5.20
2022-12-28T02:28:13.779Z,5.30
2022-12-28T02:29:13.774Z,5.10
2022-12-28T02:30:13.779Z,5.30
2022-12-28T02:31:13.769Z,5.30
2022-12-28T02:32:13.735Z,5.40
2022-12-28T02:33:13.738Z,5.20
2022-12-28T02:34:13.738Z,5.50
2022-12-28T02:35:13.707Z,5.40
2022-12-28T02:36:18.305Z,5.30
2022-12-28T02:37:14.683Z,5.00
2022-12-28T02:38:13.663Z,5.40
2022-12-28T02:39:13.674Z,5.50
2022-12-28T02:40:13.673Z,5.60
2022-12-28T02:41:13.647Z,5.50
2022-12-28T02:42:13.635Z,5.70
2022-12-28T02:43:13.621Z,5.80
2022-12-28T02:44:13.616Z,6.00
2022-12-28T02:45:13.625Z,5.80
2022-12-28T02:46:13.726Z,5.60
2022-12-28T02:47:13.586Z,6.00
2022-12-28T02:48:13.568Z,6.10
2022-12-28T02:49:13.548Z,6.10
2022-12-28T02:50:13.563Z,6.40
2022-12-28T02:51:13.547Z,6.00
2022-12-28T02:52:13.511Z,6.10
2022-12-28T02:53:13.528Z,5.80
2022-12-28T02:54:13.495Z,6.00
2022-12-28T02:55:15.625Z,5.60
2022-12-28T02:56:13.476Z,6.00
2022-12-28T02:57:13.463Z,5.70
2022-12-28T02:58:13.456Z,6.30
2022-12-28T02:59:13.443Z,6.00
2022-12-28T03:00:13.434Z,5.90
2022-12-28T03:01:13.506Z,6.20
2022-12-28T03:02:13.545Z,5.90
2022-12-28T03:03:13.451Z,6.10
2022-12-28T03:04:13.385Z,5.90
2022-12-28T03:05:13.381Z,6.30
2022-12-28T03:06:19.294Z,7.00
2022-12-28T03:07:15.353Z,6.80
2022-12-28T03:08:13.372Z,6.60
2022-12-28T03:09:13.333Z,6.50
2022-12-28T03:10:13.325Z,6.30
2022-12-28T03:11:16.059Z,6.40
2022-12-28T03:12:15.568Z,6.60
2022-12-28T03:13:13.352Z,6.50
2022-12-28T03:14:13.265Z,7.00
2022-12-28T03:15:13.276Z,6.90
2022-12-28T03:16:13.291Z,6.70
2022-12-28T03:17:13.258Z,6.90
2022-12-28T03:18:13.292Z,7.50
2022-12-28T03:19:13.196Z,7.10
2022-12-28T03:20:13.184Z,6.90
2022-12-28T03:21:13.200Z,6.90
2022-12-28T03:22:13.189Z,7.10
2022-12-28T03:23:13.184Z,6.60
2022-12-28T03:24:13.374Z,7.20
2022-12-28T03:25:13.152Z,7.20
2022-12-28T03:26:13.124Z,7.50
2022-12-28T03:27:13.151Z,6.90
2022-12-28T03:28:13.130Z,7.30
2022-12-28T03:29:13.107Z,6.80
2022-12-28T03:30:13.093Z,7.30
2022-12-28T03:31:13.188Z,7.80
2022-12-28T03:32:14.116Z,7.20
2022-12-28T03:33:13.051Z,7.20
2022-12-28T03:34:13.050Z,7.40
2022-12-28T03:35:13.034Z,7.20
2022-12-28T03:36:13.045Z,7.20
2022-12-28T03:37:13.025Z,7.30
2022-12-28T03:38:13.004Z,7.20
2022-12-28T03:39:13.002Z,7.50
2022-12-28T03:40:12.978Z,7.40
2022-12-28T03:41:13.014Z,7.50
2022-12-28T03:42:12.994Z,7.90
2022-12-28T03:43:12.936Z,7.80
2022-12-28T03:44:12.923Z,7.70
2022-12-28T03:45:12.938Z,8.60
2022-12-28T03:46:12.975Z,7.90
2022-12-28T03:47:12.911Z,8.00
2022-12-28T03:48:12.875Z,8.50
2022-12-28T03:49:12.870Z,8.30
2022-12-28T03:50:12.875Z,8.20
2022-12-28T03:51:12.836Z,8.40
2022-12-28T03:52:12.895Z,8.50
2022-12-28T03:53:12.851Z,8.70
2022-12-28T03:54:12.831Z,8.20
2022-12-28T03:55:12.848Z,8.50
2022-12-28T03:56:12.788Z,8.60
2022-12-28T03:57:12.776Z,8.60
2022-12-28T03:58:12.748Z,8.30
2022-12-28T03:59:12.750Z,8.90
2022-12-28T04:00:12.759Z,8.80
2022-12-28T04:01:13.101Z,8.10
2022-12-28T04:02:12.872Z,8.10
2022-12-28T04:03:12.720Z,8.80
2022-12-28T04:04:12.688Z,8.00
2022-12-28T04:05:12.667Z,7.90
2022-12-28T04:06:12.679Z,8.40
2022-12-28T04:07:12.709Z,8.60
2022-12-28T04:08:12.635Z,7.70
2022-12-28T04:09:12.630Z,8.80
2022-12-28T04:10:12.630Z,8.80
2022-12-28T04:11:12.604Z,8.80
2022-12-28T04:12:12.599Z,7.40
2022-12-28T04:13:12.568Z,8.40
2022-12-28T04:14:12.559Z,9.10
2022-12-28T04:15:12.558Z,8.30
2022-12-28T04:16:12.610Z,9.00
2022-12-28T04:17:12.551Z,9.00
2022-12-28T04:18:12.526Z,9.00
2022-12-28T04:19:12.546Z,8.20
2022-12-28T04:20:12.493Z,8.90
2022-12-28T04:21:12.501Z,9.00
2022-12-28T04:22:12.484Z,8.60
2022-12-28T04:23:12.479Z,8.20
2022-12-28T04:24:12.463Z,9.30
2022-12-28T04:25:13.042Z,9.40
2022-12-28T04:26:12.505Z,8.80
2022-12-28T04:27:12.423Z,8.80
2022-12-28T04:28:12.391Z,8.30
2022-12-28T04:29:12.489Z,8.80
2022-12-28T04:30:12.385Z,9.10
2022-12-28T04:31:12.458Z,9.10
2022-12-28T04:32:12.371Z,9.40
2022-12-28T04:33:12.343Z,9.90
2022-12-28T04:34:12.345Z,10.00
2022-12-28T04:35:12.313Z,9.70
2022-12-28T04:36:12.343Z,9.00
2022-12-28T04:37:12.323Z,9.40
2022-12-28T04:38:12.302Z,9.20
2022-12-28T04:39:12.270Z,9.80
2022-12-28T04:40:12.271Z,9.20
2022-12-28T04:41:12.262Z,10.30
2022-12-28T04:42:12.265Z,10.00
2022-12-28T04:43:12.234Z,10.50
2022-12-28T04:44:12.223Z,9.70
2022-12-28T04:45:15.668Z,9.80
2022-12-28T04:46:38.182Z,9.40
2022-12-28T04:47:12.179Z,10.00
2022-12-28T04:48:12.179Z,9.50
2022-12-28T04:49:12.153Z,9.70
2022-12-28T04:50:12.158Z,9.50
2022-12-28T04:51:12.131Z,9.40
2022-12-28T04:52:12.158Z,10.30
2022-12-28T04:53:12.127Z,9.80
2022-12-28T04:54:12.095Z,9.30
2022-12-28T04:55:32.646Z,10.20
2022-12-28T04:56:13.068Z,10.10
2022-12-28T04:57:12.087Z,9.80
2022-12-28T04:58:12.045Z,10.30
2022-12-28T04:59:12.039Z,9.20
2022-12-28T05:00:12.028Z,10.00
2022-12-28T05:01:12.129Z,10.30
2022-12-28T05:02:12.155Z,10.10
2022-12-28T05:03:11.991Z,9.10
2022-12-28T05:04:11.993Z,9.90
2022-12-28T05:05:11.973Z,9.90
2022-12-28T05:06:11.958Z,9.80
2022-12-28T05:07:17.160Z,9.50
2022-12-28T05:08:11.935Z,10.00
2022-12-28T05:09:11.933Z,9.30
2022-12-28T05:10:11.915Z,9.30
2022-12-28T05:11:11.916Z,10.00
2022-12-28T05:12:11.929Z,9.20
2022-12-28T05:13:11.916Z,9.90
2022-12-28T05:14:11.973Z,10.00
2022-12-28T05:15:11.880Z,11.20
2022-12-28T05:16:11.884Z,10.30
2022-12-28T05:17:11.871Z,10.30
2022-12-28T05:18:11.830Z,10.80
2022-12-28T05:19:11.872Z,10.10
2022-12-28T05:20:11.814Z,9.80
2022-12-28T05:21:11.780Z,8.30
2022-12-28T05:22:11.779Z,9.20
2022-12-28T05:23:11.764Z,9.50
2022-12-28T05:24:11.778Z,9.70
2022-12-28T05:25:12.797Z,9.40
2022-12-28T05:26:11.733Z,9.60
2022-12-28T05:27:11.712Z,8.80
2022-12-28T05:28:11.700Z,9.10
2022-12-28T05:29:11.715Z,9.30
2022-12-28T05:30:11.679Z,8.70
2022-12-28T05:31:11.798Z,9.50
2022-12-28T05:32:11.671Z,9.40
2022-12-28T05:33:11.637Z,9.40
2022-12-28T05:34:11.659Z,9.10
2022-12-28T05:35:11.641Z,8.80
2022-12-28T05:36:11.621Z,9.40
2022-12-28T05:37:15.633Z,9.50
2022-12-28T05:38:11.596Z,9.70
2022-12-28T05:39:11.584Z,9.40
2022-12-28T05:40:11.580Z,9.00
2022-12-28T05:41:11.560Z,8.90
2022-12-28T05:42:11.542Z,9.70
2022-12-28T05:43:11.530Z,8.80
2022-12-28T05:44:11.519Z,9.90
2022-12-28T05:45:11.510Z,9.30
2022-12-28T05:46:11.505Z,9.30
2022-12-28T05:47:11.519Z,8.50
2022-12-28T05:48:11.472Z,9.10
2022-12-28T05:49:11.461Z,9.00
2022-12-28T05:50:11.503Z,9.70
2022-12-28T05:51:11.447Z,8.40
2022-12-28T05:52:12.430Z,9.20
2022-12-28T05:53:11.413Z,8.40
2022-12-28T05:54:11.400Z,9.00
2022-12-28T05:55:11.438Z,8.90
2022-12-28T05:56:14.266Z,9.00
2022-12-28T05:57:12.376Z,8.80
2022-12-28T05:58:11.360Z,8.70
2022-12-28T05:59:11.352Z,9.20
2022-12-28T06:00:11.359Z,8.10
2022-12-28T06:01:11.380Z,9.30
2022-12-28T06:02:11.378Z,9.50
2022-12-28T06:03:11.428Z,8.80
2022-12-28T06:04:11.299Z,9.30
2022-12-28T06:05:11.303Z,9.00
2022-12-28T06:06:11.310Z,9.50
2022-12-28T06:07:11.257Z,9.60
2022-12-28T06:08:11.239Z,9.90
2022-12-28T06:09:11.235Z,9.10
2022-12-28T06:10:11.247Z,9.70
2022-12-28T06:11:11.231Z,9.30
2022-12-28T06:12:11.207Z,9.80
2022-12-28T06:13:11.194Z,9.70
2022-12-28T06:14:11.170Z,10.20
2022-12-28T06:15:11.172Z,8.80
2022-12-28T06:16:11.301Z,10.20
2022-12-28T06:17:11.192Z,10.30
2022-12-28T06:18:11.124Z,10.30
2022-12-28T06:19:11.132Z,9.10
2022-12-28T06:20:11.104Z,9.40
2022-12-28T06:21:11.196Z,10.20
2022-12-28T06:22:11.111Z,9.50
2022-12-28T06:23:11.086Z,10.50
2022-12-28T06:24:11.057Z,9.80
2022-12-28T06:25:11.052Z,10.60
2022-12-28T06:26:11.052Z,10.40
2022-12-28T06:27:11.048Z,10.00
2022-12-28T06:28:11.020Z,11.60
2022-12-28T06:29:10.993Z,11.20
2022-12-28T06:30:10.989Z,10.40
2022-12-28T06:31:10.970Z,10.20
2022-12-28T06:32:11.000Z,9.80
2022-12-28T06:33:10.971Z,10.40
2022-12-28T06:34:10.942Z,10.30
2022-12-28T06:35:10.959Z,10.90
2022-12-28T06:36:16.094Z,10.90
2022-12-28T06:37:12.919Z,10.00
2022-12-28T06:38:10.893Z,10.80
2022-12-28T06:39:10.893Z,10.70
2022-12-28T06:40:10.868Z,10.40
2022-12-28T06:41:13.878Z,11.40
2022-12-28T06:42:11.883Z,10.80
2022-12-28T06:43:10.860Z,11.20
2022-12-28T06:44:10.839Z,10.80
2022-12-28T06:45:10.818Z,10.70
2022-12-28T06:46:10.863Z,11.20
2022-12-28T06:47:10.797Z,10.80
2022-12-28T06:48:10.788Z,11.30
2022-12-28T06:49:10.781Z,11.70
2022-12-28T06:50:10.763Z,11.60
2022-12-28T06:51:10.749Z,11.70
2022-12-28T06:52:10.738Z,10.80
2022-12-28T06:53:10.734Z,11.30
2022-12-28T06:54:10.745Z,11.20
2022-12-28T06:55:10.706Z,11.30
2022-12-28T06:56:10.686Z,11.20
2022-12-28T06:57:10.674Z,12.00
2022-12-28T06:58:10.678Z,11.30
2022-12-28T06:59:10.647Z,11.40
2022-12-28T07:00:10.641Z,10.90
2022-12-28T07:01:10.820Z,11.40
2022-12-28T07:02:10.852Z,11.20
2022-12-28T07:03:10.652Z,11.60
2022-12-28T07:04:10.598Z,12.20
2022-12-28T07:05:10.598Z,10.80
2022-12-28T07:06:10.587Z,10.80
2022-12-28T07:07:10.557Z,11.90
2022-12-28T07:08:12.756Z,11.50
2022-12-28T07:09:11.559Z,11.70
2022-12-28T07:10:10.534Z,11.10
2022-12-28T07:11:10.526Z,9.90
2022-12-28T07:12:10.515Z,11.80
2022-12-28T07:13:10.509Z,10.10
2022-12-28T07:14:10.495Z,11.50
2022-12-28T07:15:10.469Z,10.60
2022-12-28T07:16:10.461Z,11.00
2022-12-28T07:17:10.445Z,11.50
2022-12-28T07:18:10.437Z,12.00
2022-12-28T07:19:10.472Z,11.20
2022-12-28T07:20:10.410Z,10.50
2022-12-28T07:21:10.397Z,10.60
2022-12-28T07:22:10.394Z,10.50
2022-12-28T07:23:10.376Z,10.30
2022-12-28T07:24:10.362Z,10.70
2022-12-28T07:25:10.370Z,11.10
2022-12-28T07:26:10.349Z,10.90
2022-12-28T07:27:10.335Z,11.40
2022-12-28T07:28:10.343Z,11.50
2022-12-28T07:29:10.318Z,11.30
2022-12-28T07:30:10.301Z,11.60
2022-12-28T07:31:10.335Z,11.50
2022-12-28T07:32:10.278Z,11.40
2022-12-28T07:33:10.277Z,11.10
2022-12-28T07:34:10.269Z,11.30
2022-12-28T07:35:10.243Z,11.00
2022-12-28T07:36:10.230Z,11.40
2022-12-28T07:37:10.224Z,11.10
2022-12-28T07:38:10.218Z,12.00
2022-12-28T07:39:10.292Z,11.20
2022-12-28T07:40:10.196Z,11.30
2022-12-28T07:41:10.214Z,11.40
2022-12-28T07:42:10.197Z,11.90
2022-12-28T07:43:10.173Z,10.60
2022-12-28T07:44:10.206Z,10.80
2022-12-28T07:45:10.126Z,10.80
2022-12-28T07:46:10.137Z,11.60
2022-12-28T07:47:10.149Z,11.50
2022-12-28T07:48:10.129Z,10.80
2022-12-28T07:49:10.132Z,11.10
2022-12-28T07:50:10.083Z,10.80
2022-12-28T07:51:10.086Z,11.00
2022-12-28T07:52:10.123Z,10.70
2022-12-28T07:53:10.036Z,11.00
2022-12-28T07:54:10.124Z,10.70
2022-12-28T07:55:10.042Z,10.90
2022-12-28T07:56:10.107Z,10.40
2022-12-28T07:57:09.992Z,10.00
2022-12-28T07:58:09.980Z,9.50
2022-12-28T07:59:09.977Z,11.10
2022-12-28T08:00:09.949Z,10.60
2022-12-28T08:01:10.085Z,10.50
2022-12-28T08:02:10.014Z,9.70
2022-12-28T08:03:09.968Z,10.40
2022-12-28T08:04:09.922Z,10.50
2022-12-28T08:05:09.887Z,10.60
2022-12-28T08:06:09.907Z,10.80
2022-12-28T08:07:09.893Z,10.70
2022-12-28T08:08:09.855Z,10.70
2022-12-28T08:09:09.867Z,11.60
2022-12-28T08:10:09.848Z,10.90
2022-12-28T08:11:09.889Z,10.90
2022-12-28T08:12:09.841Z,10.70
2022-12-28T08:13:09.822Z,10.60
2022-12-28T08:14:09.800Z,10.70
2022-12-28T08:15:09.801Z,11.10
2022-12-28T08:16:09.797Z,10.60
2022-12-28T08:17:09.760Z,10.40
2022-12-28T08:18:09.760Z,10.20
2022-12-28T08:19:09.750Z,10.10
2022-12-28T08:20:09.737Z,10.30
2022-12-28T08:21:09.712Z,10.60
2022-12-28T08:22:09.706Z,10.40
2022-12-28T08:23:09.712Z,10.00
2022-12-28T08:24:09.683Z,10.60
2022-12-28T08:25:09.652Z,10.40
2022-12-28T08:26:09.653Z,10.60
2022-12-28T08:27:09.645Z,9.90
2022-12-28T08:28:09.668Z,11.10
2022-12-28T08:29:09.611Z,9.80
2022-12-28T08:30:09.613Z,10.00
2022-12-28T08:31:09.801Z,9.90
2022-12-28T08:32:09.622Z,9.80
2022-12-28T08:33:09.563Z,10.10
2022-12-28T08:34:09.611Z,9.60
2022-12-28T08:35:09.561Z,9.80
2022-12-28T08:36:09.547Z,10.20
2022-12-28T08:37:09.524Z,9.90
2022-12-28T08:38:09.527Z,9.60
2022-12-28T08:39:09.523Z,9.60
2022-12-28T08:40:09.517Z,10.10
2022-12-28T08:41:09.502Z,9.30
2022-12-28T08:42:09.494Z,9.70
2022-12-28T08:43:09.543Z,9.90
2022-12-28T08:44:09.460Z,9.70
2022-12-28T08:45:09.489Z,9.40
2022-12-28T08:46:09.570Z,9.40
2022-12-28T08:47:09.452Z,9.30
2022-12-28T08:48:09.416Z,9.20
2022-12-28T08:49:09.428Z,9.50
2022-12-28T08:50:12.001Z,9.50
2022-12-28T08:51:10.424Z,9.10
2022-12-28T08:52:09.397Z,10.20
2022-12-28T08:53:09.417Z,9.60
2022-12-28T08:54:09.369Z,9.80
2022-12-28T08:55:09.411Z,8.80
2022-12-28T08:56:09.416Z,9.60
2022-12-28T08:57:09.314Z,9.50
2022-12-28T08:58:09.298Z,9.50
2022-12-28T08:59:09.289Z,9.20
2022-12-28T09:00:09.274Z,9.70
2022-12-28T09:01:09.435Z,8.80
2022-12-28T09:02:09.518Z,9.20
2022-12-28T09:03:09.496Z,9.80
2022-12-28T09:04:09.250Z,9.20
2022-12-28T09:05:09.341Z,8.90
2022-12-28T09:06:09.305Z,9.00
2022-12-28T09:07:09.245Z,9.40
2022-12-28T09:08:09.237Z,9.40
2022-12-28T09:09:09.202Z,9.20
2022-12-28T09:10:09.393Z,9.40
2022-12-28T09:11:09.268Z,8.70
2022-12-28T09:12:09.198Z,9.00
2022-12-28T09:13:09.246Z,8.80
2022-12-28T09:14:09.172Z,8.30
2022-12-28T09:15:09.106Z,8.90
2022-12-28T09:16:09.122Z,8.70
2022-12-28T09:17:09.083Z,7.70
2022-12-28T09:18:09.106Z,8.60
2022-12-28T09:19:09.076Z,8.30
2022-12-28T09:20:10.057Z,8.60
2022-12-28T09:21:09.041Z,8.10
2022-12-28T09:22:09.029Z,8.80
2022-12-28T09:23:09.022Z,8.30
2022-12-28T09:24:09.010Z,8.30
2022-12-28T09:25:08.992Z,8.50
2022-12-28T09:26:08.982Z,8.70
2022-12-28T09:27:08.982Z,8.30
2022-12-28T09:28:08.959Z,8.20
2022-12-28T09:29:09.042Z,8.50
2022-12-28T09:30:08.947Z,7.50
2022-12-28T09:31:08.976Z,7.70
2022-12-28T09:32:08.916Z,7.90
2022-12-28T09:33:08.904Z,7.90
2022-12-28T09:34:38.574Z,8.00
2022-12-28T09:35:10.888Z,7.30
2022-12-28T09:36:08.907Z,7.90
2022-12-28T09:37:08.915Z,7.60
2022-12-28T09:38:08.852Z,8.00
2022-12-28T09:39:08.902Z,8.10
2022-12-28T09:40:08.823Z,7.40
2022-12-28T09:41:08.803Z,7.40
2022-12-28T09:42:08.794Z,7.90
2022-12-28T09:43:08.802Z,7.30
2022-12-28T09:44:08.784Z,7.80
2022-12-28T09:45:08.761Z,7.50
2022-12-28T09:46:08.811Z,7.50
2022-12-28T09:47:08.744Z,7.80
2022-12-28T09:48:08.723Z,7.10
2022-12-28T09:49:08.735Z,6.90
2022-12-28T09:50:08.705Z,7.10
2022-12-28T09:51:08.698Z,6.90
2022-12-28T09:52:08.682Z,7.10
2022-12-28T09:53:08.678Z,6.30
2022-12-28T09:54:08.669Z,6.80
2022-12-28T09:55:08.646Z,7.10
2022-12-28T09:56:08.633Z,7.20
2022-12-28T09:57:08.618Z,7.10
2022-12-28T09:58:08.641Z,7.00
2022-12-28T09:59:08.625Z,6.60
2022-12-28T10:00:08.601Z,6.60
2022-12-28T10:01:08.613Z,6.70
2022-12-28T10:02:08.691Z,6.60
2022-12-28T10:03:08.590Z,6.20
2022-12-28T10:04:08.557Z,6.30
2022-12-28T10:05:08.565Z,6.30
2022-12-28T10:06:08.539Z,6.40
2022-12-28T10:07:08.518Z,6.20
2022-12-28T10:08:08.505Z,6.20
2022-12-28T10:09:08.492Z,6.40
2022-12-28T10:10:08.495Z,6.10
2022-12-28T10:11:08.484Z,6.40
2022-12-28T10:12:08.463Z,6.00
2022-12-28T10:13:21.569Z,5.30
2022-12-28T10:14:09.435Z,5.60
2022-12-28T10:15:08.450Z,5.80
2022-12-28T10:16:08.475Z,5.80
2022-12-28T10:17:08.398Z,5.70
2022-12-28T10:18:08.408Z,5.40
2022-12-28T10:19:08.555Z,5.60
2022-12-28T10:20:08.368Z,5.50
2022-12-28T10:21:08.356Z,5.80
2022-12-28T10:22:08.388Z,5.60
2022-12-28T10:23:08.326Z,5.30
2022-12-28T10:25:10.379Z,5.20
2022-12-28T10:26:08.298Z,5.20
2022-12-28T10:27:08.299Z,5.80
2022-12-28T10:28:08.279Z,4.90
2022-12-28T10:29:08.258Z,5.50
2022-12-28T10:30:08.347Z,5.00
2022-12-28T10:31:08.278Z,5.30
2022-12-28T10:32:08.235Z,4.90
2022-12-28T10:33:12.361Z,5.00
2022-12-28T10:34:09.227Z,4.90
2022-12-28T10:35:08.203Z,5.50
2022-12-28T10:36:08.272Z,4.90
2022-12-28T10:37:14.723Z,5.20
2022-12-28T10:38:09.175Z,5.10
2022-12-28T10:39:08.159Z,4.70
2022-12-28T10:40:08.139Z,4.70
2022-12-28T10:41:08.129Z,5.10
2022-12-28T10:42:08.147Z,4.70
2022-12-28T10:43:11.067Z,4.90
2022-12-28T10:44:38.240Z,5.20
2022-12-28T10:45:10.090Z,5.10
2022-12-28T10:46:16.970Z,4.80
2022-12-28T10:48:39.986Z,4.40
2022-12-28T10:49:12.340Z,4.60
2022-12-28T10:50:36.208Z,4.60
2022-12-28T10:51:10.025Z,4.10
2022-12-28T10:52:08.093Z,4.20
2022-12-28T10:53:08.010Z,4.30
2022-12-28T10:54:08.001Z,4.40
2022-12-28T10:55:08.847Z,4.40
2022-12-28T10:56:08.081Z,4.30
2022-12-28T10:57:07.954Z,4.60
2022-12-28T10:59:09.936Z,4.10
2022-12-28T11:00:08.011Z,4.10
2022-12-28T11:01:08.168Z,4.10
2022-12-28T11:02:08.582Z,4.10
2022-12-28T11:03:07.937Z,4.40
2022-12-28T11:04:07.884Z,4.40
2022-12-28T11:05:07.867Z,4.30
2022-12-28T11:06:07.870Z,4.00
2022-12-28T11:07:07.840Z,3.80
2022-12-28T11:08:07.932Z,3.90
2022-12-28T11:09:07.842Z,4.10
2022-12-28T11:10:07.914Z,3.90
2022-12-28T11:11:07.841Z,3.50
2022-12-28T11:12:07.805Z,3.80
2022-12-28T11:13:07.778Z,4.00
2022-12-28T11:14:07.797Z,4.10
2022-12-28T11:15:07.779Z,3.90
2022-12-28T11:16:07.805Z,3.90
2022-12-28T11:17:07.745Z,3.90
2022-12-28T11:18:07.751Z,3.70
2022-12-28T11:19:07.768Z,3.80
2022-12-28T11:20:07.690Z,4.10
2022-12-28T11:21:07.711Z,4.00
2022-12-28T11:22:07.675Z,3.90
2022-12-28T11:23:07.701Z,3.70
2022-12-28T11:24:07.652Z,4.10
2022-12-28T11:25:07.675Z,3.70
2022-12-28T11:26:07.649Z,3.50
2022-12-28T11:27:07.645Z,3.60
2022-12-28T11:28:07.621Z,3.50
2022-12-28T11:29:07.602Z,3.40
2022-12-28T11:30:11.121Z,3.70
2022-12-28T11:31:08.628Z,3.60
2022-12-28T11:32:07.574Z,3.90
2022-12-28T11:33:07.640Z,3.60
2022-12-28T11:34:07.547Z,3.80
2022-12-28T11:35:07.537Z,3.70
2022-12-28T11:36:10.212Z,3.90
2022-12-28T11:37:08.565Z,4.10
2022-12-28T11:38:07.576Z,3.90
2022-12-28T11:39:07.492Z,4.00
2022-12-28T11:40:07.486Z,3.60
2022-12-28T11:41:07.462Z,3.70
2022-12-28T11:42:37.875Z,4.00
2022-12-28T11:43:09.547Z,3.70
2022-12-28T11:44:07.476Z,4.10
2022-12-28T11:45:08.517Z,3.80
2022-12-28T11:46:07.465Z,4.00
2022-12-28T11:47:07.407Z,3.70
2022-12-28T11:48:07.401Z,3.70
2022-12-28T11:49:07.377Z,3.60
2022-12-28T11:50:07.387Z,3.50
2022-12-28T11:51:07.367Z,3.70
2022-12-28T11:52:07.343Z,3.80
2022-12-28T11:53:13.646Z,4.00
2022-12-28T11:54:09.325Z,3.70
2022-12-28T11:55:07.330Z,3.70
2022-12-28T11:56:07.311Z,4.40
2022-12-28T11:57:07.385Z,3.60
2022-12-28T11:58:07.296Z,4.00
2022-12-28T11:59:07.264Z,3.60
2022-12-28T12:00:07.243Z,3.80
2022-12-28T12:01:14.036Z,3.70
2022-12-28T12:02:07.300Z,4.00
2022-12-28T12:03:07.273Z,3.80
2022-12-28T12:04:07.210Z,3.90
2022-12-28T12:05:07.226Z,3.90
2022-12-28T12:06:07.214Z,3.60
2022-12-28T12:07:07.200Z,3.80
2022-12-28T12:08:07.198Z,3.40
2022-12-28T12:09:07.158Z,3.40
2022-12-28T12:10:07.181Z,3.80
2022-12-28T12:11:07.147Z,3.90
2022-12-28T12:12:07.156Z,3.80
2022-12-28T12:13:07.168Z,3.80
2022-12-28T12:14:07.116Z,3.40
2022-12-28T12:15:07.109Z,3.50
2022-12-28T12:16:07.143Z,3.60
2022-12-28T12:17:07.144Z,3.70
2022-12-28T12:18:07.096Z,3.30
2022-12-28T12:19:07.061Z,3.60
2022-12-28T12:20:07.044Z,3.50
2022-12-28T12:21:11.852Z,3.50
2022-12-28T12:22:09.014Z,3.60
2022-12-28T12:23:08.166Z,3.60
2022-12-28T12:24:07.023Z,3.70
2022-12-28T12:25:06.996Z,3.70
2022-12-28T12:26:06.964Z,3.40
2022-12-28T12:27:12.005Z,3.60
2022-12-28T12:28:08.972Z,3.60
2022-12-28T12:29:06.938Z,3.60
2022-12-28T12:30:06.963Z,3.50
2022-12-28T12:31:06.936Z,3.60
2022-12-28T12:32:06.916Z,3.30
2022-12-28T12:33:06.908Z,3.90
2022-12-28T12:34:06.899Z,3.40
2022-12-28T12:35:06.890Z,3.40
2022-12-28T12:36:06.879Z,3.20
2022-12-28T12:37:06.848Z,3.20
2022-12-28T12:38:06.848Z,3.50
2022-12-28T12:39:06.848Z,3.20
2022-12-28T12:40:06.888Z,3.30
2022-12-28T12:41:06.842Z,3.00
2022-12-28T12:42:06.822Z,3.10
2022-12-28T12:43:06.798Z,3.30
2022-12-28T12:44:06.834Z,3.00
2022-12-28T12:45:06.773Z,3.20
2022-12-28T12:46:06.813Z,2.90
2022-12-28T12:47:06.749Z,3.20
2022-12-28T12:48:06.747Z,3.00
2022-12-28T12:49:06.718Z,3.40
2022-12-28T12:50:06.747Z,3.20
2022-12-28T12:51:06.708Z,3.30
2022-12-28T12:52:06.689Z,3.30
2022-12-28T12:53:06.685Z,3.20
2022-12-28T12:54:07.143Z,2.90
2022-12-28T12:55:06.658Z,3.00
2022-12-28T12:56:06.852Z,3.20
2022-12-28T12:57:06.660Z,3.00
2022-12-28T12:58:06.858Z,2.70
2022-12-28T12:59:06.623Z,2.90
2022-12-28T13:00:06.703Z,3.50
2022-12-28T13:01:06.737Z,2.70
2022-12-28T13:02:06.770Z,2.80
2022-12-28T13:03:06.796Z,3.00
2022-12-28T13:04:06.571Z,3.00
2022-12-28T13:05:06.598Z,2.80
2022-12-28T13:06:06.615Z,3.10
2022-12-28T13:07:06.557Z,2.90
2022-12-28T13:08:06.567Z,3.10
2022-12-28T13:09:06.525Z,3.20
2022-12-28T13:10:06.529Z,3.00
2022-12-28T13:11:06.543Z,2.80
2022-12-28T13:12:06.503Z,3.00
2022-12-28T13:13:06.515Z,2.80
2022-12-28T13:14:06.494Z,2.90
2022-12-28T13:15:12.461Z,3.00
2022-12-28T13:16:08.499Z,2.80